Time;durP1;ratioP1;P1;durP2;ratioP2;P2;SDS_P1;SDS_P2;PMS_P1;PMS_P2;Temp;Humidity;BMP_temperature;BMP_pressure;BME280_temperature;BME280_humidity;BME280_pressure;Samples;Min_cycle;Max_cycle;Signal;HPM_P1;HPM_P2
2023/06/14 00:02:56;;;;;;;5.50;5.10;;;;;;;13.66;74.72;99922.92;220456;1255;161555;-69
2023/06/14 00:08:01;;;;;;;4.80;3.90;;;;;;;13.64;74.67;99925.84;220400;1257;139657;-69
2023/06/14 00:13:08;;;;;;;6.60;4.80;;;;;;;13.59;74.63;99922.51;219037;1255;141468;-69
2023/06/14 00:18:13;;;;;;;9.00;5.20;;;;;;;13.55;74.69;99923.16;220187;1256;141540;-69
2023/06/14 00:23:18;;;;;;;5.50;5.00;;;;;;;13.53;74.94;99920.34;220456;1257;140679;-69
2023/06/14 00:28:23;;;;;;;5.10;4.70;;;;;;;13.53;75.15;99913.33;220145;1259;139701;-70
2023/06/14 00:33:28;;;;;;;8.00;4.30;;;;;;;13.56;75.37;99913.79;219888;1257;140606;-70
2023/06/14 00:38:33;;;;;;;4.80;3.50;;;;;;;13.58;75.35;99915.65;219886;1256;141548;-68
2023/06/14 00:43:38;;;;;;;6.30;4.80;;;;;;;13.58;75.29;99912.38;220294;1257;140743;-70
2023/06/14 00:48:43;;;;;;;3.20;2.90;;;;;;;13.52;75.12;99917.44;220362;1259;140062;-70
2023/06/14 00:53:48;;;;;;;4.10;3.80;;;;;;;13.40;75.05;99920.09;219065;1257;140865;-69
2023/06/14 00:58:52;;;;;;;2.70;2.50;;;;;;;13.31;75.12;99915.69;220363;1257;140758;-69
2023/06/14 01:03:57;;;;;;;2.90;2.60;;;;;;;13.27;75.22;99912.04;220438;1255;141789;-70
2023/06/14 01:09:37;;;;;;;4.30;3.10;;;;;;;13.24;74.85;99912.37;220448;1257;140767;-70
2023/06/14 01:14:44;;;;;;;3.50;3.30;;;;;;;13.20;75.12;99911.19;220452;1257;141090;-70
2023/06/14 01:19:49;;;;;;;5.70;3.40;;;;;;;13.16;75.16;99906.95;220254;1259;142030;-69
2023/06/14 01:24:55;;;;;;;5.10;3.10;;;;;;;13.15;75.46;99905.02;220377;1255;140099;-70
2023/06/14 01:30:02;;;;;;;8.20;4.00;;;;;;;13.13;75.48;99897.07;220415;1259;139776;-70
2023/06/14 01:35:08;;;;;;;6.70;4.40;;;;;;;13.12;75.69;99901.17;220418;1256;139730;-70
2023/06/14 01:40:14;;;;;;;3.70;3.40;;;;;;;13.11;75.44;99903.09;220244;1256;140410;-70
2023/06/14 01:45:21;;;;;;;4.20;3.80;;;;;;;13.05;75.65;99908.73;220302;1257;140186;-70
2023/06/14 01:50:30;;;;;;;4.40;3.90;;;;;;;13.02;75.39;99904.73;220274;1257;139848;-71
2023/06/14 01:55:37;;;;;;;4.30;3.60;;;;;;;13.00;75.40;99901.26;220152;1257;141022;-70
2023/06/14 02:00:43;;;;;;;4.50;4.10;;;;;;;12.96;75.60;99898.74;219896;1259;139489;-69
2023/06/14 02:05:47;;;;;;;5.60;4.00;;;;;;;12.93;75.75;99901.91;220299;1256;140417;-70
2023/06/14 02:10:52;;;;;;;7.60;5.00;;;;;;;12.90;75.84;99909.66;219542;1257;140617;-70
2023/06/14 02:15:57;;;;;;;6.30;5.80;;;;;;;12.89;76.16;99908.73;220093;1257;140685;-69
2023/06/14 02:21:02;;;;;;;5.30;4.70;;;;;;;12.89;76.27;99912.22;220139;1256;139370;-70
2023/06/14 02:26:07;;;;;;;5.60;5.00;;;;;;;12.89;76.19;99911.70;220294;1256;139997;-67
2023/06/14 02:31:12;;;;;;;7.20;5.20;;;;;;;12.88;76.52;99917.44;220335;1257;140453;-70
2023/06/14 02:36:16;;;;;;;6.60;6.00;;;;;;;12.90;76.46;99913.95;220397;1257;140507;-69
2023/06/14 02:41:20;;;;;;;7.30;5.30;;;;;;;12.89;76.59;99913.63;220355;1257;140180;-70
2023/06/14 02:46:24;;;;;;;6.00;5.40;;;;;;;12.90;76.82;99905.55;219575;1257;1289764;-71
2023/06/14 02:51:29;;;;;;;6.10;5.20;;;;;;;12.91;76.77;99897.53;220466;1259;140084;-71
2023/06/14 02:56:35;;;;;;;7.70;5.30;;;;;;;12.91;76.72;99904.93;220408;1259;140323;-68
2023/06/14 03:01:41;;;;;;;6.90;4.70;;;;;;;12.92;76.88;99911.05;220257;1257;139745;-71
2023/06/14 03:06:50;;;;;;;10.90;5.90;;;;;;;12.93;77.23;99904.64;220194;1259;141760;-71
2023/06/14 03:11:54;;;;;;;6.30;5.70;;;;;;;12.94;77.00;99903.09;220335;1257;139645;-71
2023/06/14 03:17:00;;;;;;;9.00;7.00;;;;;;;12.96;76.96;99897.19;220428;1257;161103;-71
2023/06/14 03:22:07;;;;;;;9.60;6.00;;;;;;;12.99;77.33;99897.77;220426;1259;140612;-71
2023/06/14 03:27:13;;;;;;;7.30;6.60;;;;;;;13.00;77.25;99906.07;220371;1257;139918;-71
2023/06/14 03:32:19;;;;;;;6.80;6.10;;;;;;;13.04;77.15;99907.74;220004;1255;140596;-69
2023/06/14 03:37:25;;;;;;;7.10;6.20;;;;;;;13.07;77.13;99907.15;219731;1257;140063;-71
2023/06/14 03:42:29;;;;;;;6.80;6.10;;;;;;;13.10;77.27;99914.52;220262;1256;141869;-70
2023/06/14 03:47:35;;;;;;;9.90;6.30;;;;;;;13.11;77.19;99909.19;219882;1257;141003;-68
2023/06/14 03:52:42;;;;;;;8.20;7.40;;;;;;;13.14;77.39;99914.58;220324;1256;140318;-71
2023/06/14 03:57:47;;;;;;;7.10;6.40;;;;;;;13.16;77.32;99919.70;219380;1259;139417;-70
2023/06/14 04:02:51;;;;;;;7.70;7.00;;;;;;;13.18;77.36;99926.41;220396;1259;140397;-71
2023/06/14 04:07:55;;;;;;;7.40;6.70;;;;;;;13.20;77.59;99927.84;219486;1256;150557;-68
2023/06/14 04:13:00;;;;;;;7.30;6.60;;;;;;;13.24;77.50;99938.23;219788;1259;140931;-71
2023/06/14 04:18:05;;;;;;;9.40;7.10;;;;;;;13.26;77.70;99942.33;220206;1259;139818;-72
2023/06/14 04:23:14;;;;;;;8.80;6.70;;;;;;;13.31;77.76;99942.62;219993;1260;142010;-71
2023/06/14 04:28:19;;;;;;;16.40;6.70;;;;;;;13.38;77.73;99940.04;219809;1259;140986;-70
2023/06/14 04:33:25;;;;;;;9.00;6.60;;;;;;;13.43;77.83;99935.71;220271;1259;140463;-71
2023/06/14 04:38:28;;;;;;;7.60;6.60;;;;;;;13.44;77.57;99939.52;220462;1256;140545;-71
2023/06/14 04:43:37;;;;;;;8.00;6.60;;;;;;;13.47;78.02;99933.83;220398;1258;141355;-70
2023/06/14 04:48:42;;;;;;;8.80;7.20;;;;;;;13.56;77.84;99933.39;220348;1257;139948;-71
2023/06/14 04:53:46;;;;;;;8.00;6.20;;;;;;;13.62;77.71;99930.42;220211;1257;141123;-75
2023/06/14 04:58:49;;;;;;;8.90;5.70;;;;;;;13.68;77.68;99930.08;220140;1257;141673;-72
2023/06/14 05:03:54;;;;;;;8.80;6.20;;;;;;;13.76;77.79;99933.75;220308;1260;139858;-76
2023/06/14 05:08:59;;;;;;;8.00;6.30;;;;;;;13.83;77.85;99937.52;220398;1256;140198;-78
2023/06/14 05:14:06;;;;;;;9.60;6.70;;;;;;;13.85;77.45;99935.08;219306;1260;139423;-77
2023/06/14 05:19:14;;;;;;;7.60;6.40;;;;;;;13.90;77.50;99925.91;220106;1257;139867;-78
2023/06/14 05:24:19;;;;;;;7.40;6.10;;;;;;;13.91;77.37;99926.30;220442;1257;141155;-88
2023/06/14 05:29:24;;;;;;;6.30;5.70;;;;;;;13.95;77.39;99928.23;220126;1257;141422;-76
2023/06/14 05:34:33;;;;;;;12.70;6.60;;;;;;;14.05;77.59;99928.11;219985;1256;140280;-74
2023/06/14 05:39:37;;;;;;;6.00;5.40;;;;;;;14.10;77.15;99929.48;220264;1260;140858;-76
2023/06/14 05:44:42;;;;;;;9.10;5.90;;;;;;;14.19;77.16;99932.64;220297;1258;139673;-71
2023/06/14 05:49:46;;;;;;;17.20;7.00;;;;;;;14.25;77.00;99930.19;220183;1256;141254;-76
2023/06/14 05:54:53;;;;;;;8.00;6.50;;;;;;;14.24;77.16;99931.25;220179;1259;140527;-72
2023/06/14 05:59:57;;;;;;;6.90;6.20;;;;;;;14.29;77.18;99938.16;219611;1257;139767;-71
2023/06/14 06:05:03;;;;;;;6.70;5.80;;;;;;;14.37;77.07;99940.91;220213;1257;139674;-69
2023/06/14 06:10:08;;;;;;;8.40;6.30;;;;;;;14.48;77.26;99946.20;218859;1257;140014;-67
2023/06/14 06:15:14;;;;;;;6.60;5.90;;;;;;;14.67;77.18;99949.58;220170;1257;139966;-69
2023/06/14 06:20:18;;;;;;;6.20;5.60;;;;;;;14.84;77.15;99951.05;220010;1256;139718;-68
2023/06/14 06:25:26;;;;;;;24.50;6.50;;;;;;;14.94;76.87;99956.34;220216;1256;140053;-69
2023/06/14 06:30:31;;;;;;;6.50;5.90;;;;;;;15.03;76.77;99951.71;220151;1257;140860;-70
2023/06/14 06:35:36;;;;;;;6.90;6.20;;;;;;;15.13;76.39;99949.52;220228;1260;140464;-70
2023/06/14 06:40:43;;;;;;;7.10;5.80;;;;;;;15.25;76.30;99951.16;220372;1260;139937;-70
2023/06/14 06:45:48;;;;;;;6.90;5.40;;;;;;;15.31;75.90;99952.90;220058;1257;141290;-72
2023/06/14 06:50:53;;;;;;;5.70;5.20;;;;;;;15.41;76.06;99957.03;220144;1257;141317;-72
2023/06/14 06:55:58;;;;;;;6.50;5.00;;;;;;;15.56;75.62;99959.40;220285;1256;139993;-72
2023/06/14 07:01:03;;;;;;;6.80;6.20;;;;;;;15.80;75.45;99956.23;220195;1256;140494;-71
2023/06/14 07:06:10;;;;;;;7.00;5.40;;;;;;;15.92;75.06;99957.64;220299;1257;139463;-71
2023/06/14 07:11:15;;;;;;;6.10;5.30;;;;;;;15.96;74.71;99963.63;220343;1255;140361;-71
2023/06/14 07:16:20;;;;;;;6.10;4.70;;;;;;;15.95;74.25;99960.34;220332;1257;141058;-69
2023/06/14 07:21:27;;;;;;;7.10;5.60;;;;;;;15.94;74.00;99964.64;220394;1257;139529;-72
2023/06/14 07:26:32;;;;;;;8.90;5.10;;;;;;;15.98;74.07;99965.58;220443;1257;140610;-73
2023/06/14 07:31:37;;;;;;;5.70;5.10;;;;;;;16.06;73.95;99973.40;220354;1254;139653;-72
2023/06/14 07:36:44;;;;;;;7.00;5.00;;;;;;;16.13;73.73;99978.64;220287;1254;140391;-72
2023/06/14 07:41:50;;;;;;;5.90;5.30;;;;;;;16.24;73.44;99980.70;220616;1254;139658;-74
2023/06/14 07:46:58;;;;;;;4.70;4.20;;;;;;;16.49;73.31;99983.83;220040;1254;139761;-74
2023/06/14 07:52:04;;;;;;;7.70;4.60;;;;;;;17.14;73.01;99980.27;220470;1257;140241;-73
2023/06/14 07:57:09;;;;;;;6.40;4.70;;;;;;;17.79;72.31;99978.23;220345;1254;140842;-72
2023/06/14 08:02:15;;;;;;;6.70;5.00;;;;;;;18.33;71.62;99975.79;220269;1254;140334;-73
2023/06/14 08:07:20;;;;;;;5.20;4.40;;;;;;;18.67;70.59;99978.44;220252;1254;139798;-71
2023/06/14 08:12:25;;;;;;;6.40;5.50;;;;;;;18.81;69.62;99977.35;220687;1254;140415;-71
2023/06/14 08:17:30;;;;;;;11.20;5.70;;;;;;;18.92;68.94;99978.25;220427;1256;140422;-72
2023/06/14 08:22:37;;;;;;;4.50;4.20;;;;;;;19.10;68.26;99979.26;220398;1254;140899;-72
2023/06/14 08:27:42;;;;;;;5.20;4.70;;;;;;;19.47;67.86;99979.58;220334;1254;140626;-69
2023/06/14 08:32:46;;;;;;;5.30;4.80;;;;;;;19.76;66.65;99980.83;219950;1254;140447;-70
2023/06/14 08:38:03;;;;;;;12.40;4.70;;;;;;;19.95;65.50;99979.23;220553;1256;139579;-74
2023/06/14 08:43:08;;;;;;;5.40;4.90;;;;;;;19.97;64.95;99978.20;220177;1254;139502;-75
2023/06/14 08:48:17;;;;;;;8.30;4.80;;;;;;;19.60;63.97;99976.03;219432;1257;140100;-74
2023/06/14 08:53:22;;;;;;;5.60;5.20;;;;;;;19.15;63.75;99983.35;219995;1254;139800;-74
2023/06/14 08:58:31;;;;;;;9.80;3.80;;;;;;;18.93;63.73;99985.63;219922;1254;138542;-76
2023/06/14 09:03:40;;;;;;;4.50;4.20;;;;;;;18.92;63.93;99980.41;220432;1254;139757;-71
2023/06/14 09:08:50;;;;;;;6.30;5.20;;;;;;;19.05;63.97;99982.87;220363;1254;140910;-72
2023/06/14 09:13:57;;;;;;;6.00;5.00;;;;;;;19.12;63.61;99979.28;220673;1254;140979;-71
2023/06/14 09:19:03;;;;;;;12.60;5.50;;;;;;;19.12;63.30;99981.34;220656;1254;140364;-71
2023/06/14 09:24:14;;;;;;;5.70;5.00;;;;;;;19.06;63.20;99987.50;220644;1254;140308;-71
2023/06/14 09:29:18;;;;;;;8.80;5.60;;;;;;;18.85;63.11;99990.18;220675;1254;139518;-72
2023/06/14 09:34:24;;;;;;;4.90;4.50;;;;;;;18.70;63.25;99996.94;220437;1256;140742;-72
2023/06/14 09:39:29;;;;;;;7.40;4.50;;;;;;;18.61;63.18;99992.69;220667;1254;139219;-72
2023/06/14 09:44:35;;;;;;;9.60;5.40;;;;;;;18.52;62.73;99990.45;220499;1254;140247;-72
2023/06/14 09:49:39;;;;;;;5.60;5.00;;;;;;;18.46;62.83;99986.92;220487;1254;139179;-71
2023/06/14 09:54:46;;;;;;;7.60;5.20;;;;;;;18.58;63.09;99985.95;220538;1254;139762;-69
2023/06/14 09:59:57;;;;;;;8.30;4.10;;;;;;;18.80;63.06;99980.44;220558;1254;140084;-69
2023/06/14 10:05:08;;;;;;;5.10;4.70;;;;;;;19.14;62.65;99985.91;220255;1254;139750;-68
2023/06/14 10:10:18;;;;;;;5.10;4.60;;;;;;;19.49;62.24;99979.02;220594;1254;140373;-71
2023/06/14 10:15:47;;;;;;;38.70;8.50;;;;;;;19.87;61.65;99978.05;220237;1254;140443;-69
2023/06/14 10:21:05;;;;;;;7.70;4.50;;;;;;;20.14;61.14;99978.00;220729;1254;140117;-70
2023/06/14 10:26:21;;;;;;;9.00;4.40;;;;;;;20.27;60.61;99974.52;220544;1259;138957;-70
2023/06/14 10:31:47;;;;;;;7.90;5.40;;;;;;;20.45;60.23;99974.89;220210;1256;139969;-74
2023/06/14 10:37:12;;;;;;;9.40;5.10;;;;;;;20.67;59.56;99975.23;219102;1257;139607;-74
2023/06/14 10:42:17;;;;;;;6.20;5.60;;;;;;;20.86;59.17;99973.56;219974;1256;139029;-66
2023/06/14 10:47:27;;;;;;;7.40;5.20;;;;;;;20.95;59.00;99963.34;219376;1254;141251;-66
2023/06/14 10:52:38;;;;;;;8.00;5.30;;;;;;;20.93;58.71;99961.27;218925;1257;139969;-67
2023/06/14 10:57:58;;;;;;;7.30;5.10;;;;;;;20.91;58.56;99957.44;220280;1256;139172;-67
2023/06/14 11:03:23;;;;;;;9.60;4.80;;;;;;;20.87;58.23;99958.76;220525;1254;139519;-66
2023/06/14 11:08:29;;;;;;;;;;;;;;;20.71;58.19;99955.34;220454;1254;140509;-67
2023/06/14 11:13:33;;;;;;;8.00;5.20;;;;;;;20.46;57.90;99956.45;218749;1257;126218;-66
2023/06/14 11:18:49;;;;;;;4.80;4.40;;;;;;;20.34;58.11;99947.58;215241;1297;657509;-67
2023/06/14 11:23:55;;;;;;;7.20;5.30;;;;;;;20.19;58.27;99947.25;217943;1272;139497;-65
2023/06/14 11:29:00;;;;;;;9.70;4.70;;;;;;;20.06;58.43;99942.94;217478;1271;355586;-65
2023/06/14 11:34:06;;;;;;;9.00;4.70;;;;;;;19.95;58.38;99940.50;219663;1263;140314;-65
2023/06/14 11:39:10;;;;;;;8.00;5.00;;;;;;;19.85;58.50;99946.64;219560;1262;139480;-65
2023/06/14 11:44:15;;;;;;;5.50;5.00;;;;;;;19.79;58.48;99944.05;219661;1263;139300;-70
2023/06/14 11:49:20;;;;;;;6.10;5.60;;;;;;;19.87;58.56;99943.48;219589;1265;138905;-68
2023/06/14 11:54:24;;;;;;;11.20;4.70;;;;;;;20.06;58.60;99947.06;219637;1262;139499;-71
2023/06/14 11:59:31;;;;;;;10.40;6.10;;;;;;;20.34;58.53;99942.55;219719;1260;140137;-70
2023/06/14 12:04:35;;;;;;;8.30;5.10;;;;;;;20.69;58.07;99937.23;219357;1260;139434;-69
2023/06/14 12:09:39;;;;;;;5.20;4.80;;;;;;;21.01;57.54;99929.31;219788;1263;139008;-69
2023/06/14 12:14:44;;;;;;;8.80;5.50;;;;;;;21.20;57.54;99925.87;219636;1260;138469;-70
2023/06/14 12:19:50;;;;;;;10.60;6.60;;;;;;;21.40;57.09;99920.18;219586;1261;139799;-70
2023/06/14 12:24:55;;;;;;;5.70;5.10;;;;;;;21.45;56.75;99918.22;218862;1260;139713;-69
2023/06/14 12:30:05;;;;;;;4.80;4.40;;;;;;;21.58;56.85;99909.18;219862;1261;140087;-65
2023/06/14 12:35:09;;;;;;;6.20;4.90;;;;;;;21.75;56.70;99905.29;219618;1263;139345;-65
2023/06/14 12:40:15;;;;;;;6.80;5.80;;;;;;;22.00;56.28;99900.73;219196;1261;139562;-65
2023/06/14 12:45:21;;;;;;;8.40;5.00;;;;;;;22.04;54.97;99900.77;219791;1258;138882;-66
2023/06/14 12:50:26;;;;;;;4.50;4.00;;;;;;;22.31;54.61;99905.13;219936;1259;139685;-66
2023/06/14 12:55:29;;;;;;;4.90;4.10;;;;;;;22.55;53.78;99898.66;219908;1260;139280;-67
2023/06/14 13:00:34;;;;;;;6.80;5.00;;;;;;;22.77;53.53;99892.14;219836;1259;141018;-67
2023/06/14 13:05:41;;;;;;;7.50;4.20;;;;;;;22.78;53.00;99883.98;218935;1260;138545;-67
2023/06/14 13:10:45;;;;;;;6.30;4.60;;;;;;;22.42;52.44;99887.20;219848;1262;139585;-65
2023/06/14 13:15:50;;;;;;;7.10;4.50;;;;;;;21.93;52.50;99891.77;219723;1257;138720;-66
2023/06/14 13:20:55;;;;;;;6.40;5.20;;;;;;;21.20;52.83;99890.67;219887;1262;138897;-66
2023/06/14 13:25:59;;;;;;;6.00;5.40;;;;;;;20.64;53.93;99891.80;220095;1257;138328;-69
2023/06/14 13:31:06;;;;;;;5.20;4.20;;;;;;;20.25;55.07;99895.36;219862;1262;139089;-68
2023/06/14 13:36:12;;;;;;;7.30;4.50;;;;;;;19.73;55.96;99903.83;219758;1262;138629;-66
2023/06/14 13:41:20;;;;;;;4.90;4.50;;;;;;;19.21;56.99;99911.09;219917;1258;138831;-65
2023/06/14 13:46:25;;;;;;;5.60;5.20;;;;;;;18.74;58.38;99920.48;220000;1262;140034;-68
2023/06/14 13:51:30;;;;;;;5.50;5.00;;;;;;;18.41;59.34;99927.04;219916;1261;138317;-68
2023/06/14 13:56:34;;;;;;;10.80;4.60;;;;;;;18.15;60.44;99935.91;219967;1260;139768;-68
2023/06/14 14:01:39;;;;;;;4.70;4.40;;;;;;;17.85;61.42;99936.89;219750;1262;141302;-68
2023/06/14 14:06:49;;;;;;;11.10;5.30;;;;;;;17.51;62.32;99937.29;219818;1259;139485;-68
2023/06/14 14:12:03;;;;;;;6.70;5.20;;;;;;;17.31;63.52;99937.04;219896;1260;139935;-69
2023/06/14 14:17:14;;;;;;;7.80;5.80;;;;;;;17.18;64.42;99934.95;219804;1261;140662;-70
2023/06/14 14:22:21;;;;;;;12.90;6.70;;;;;;;17.05;64.91;99932.52;218582;1259;220899;-66
2023/06/14 14:27:30;;;;;;;6.50;5.20;;;;;;;16.98;65.95;99928.27;218859;1260;139925;-70
2023/06/14 14:32:39;;;;;;;6.50;5.50;;;;;;;16.95;66.49;99922.84;220053;1262;139498;-74
2023/06/14 14:38:04;;;;;;;8.50;5.70;;;;;;;16.93;66.87;99920.73;219888;1261;246671;-66
2023/06/14 14:43:11;;;;;;;6.50;5.00;;;;;;;16.89;67.25;99922.30;217992;1263;139793;-69
2023/06/14 14:48:17;;;;;;;;;;;;;;;16.76;67.61;99922.11;217328;1261;140108;-70
2023/06/14 14:53:23;;;;;;;9.00;5.50;;;;;;;16.58;68.23;99923.92;219958;1261;125542;-72
2023/06/14 14:58:29;;;;;;;8.90;4.60;;;;;;;16.39;68.84;99922.25;219808;1260;140139;-65
2023/06/14 15:03:34;;;;;;;6.00;5.20;;;;;;;16.32;69.54;99918.90;219797;1260;140002;-72
2023/06/14 15:08:59;;;;;;;6.20;5.70;;;;;;;16.36;70.02;99916.33;219650;1259;140381;-72
2023/06/14 15:14:04;;;;;;;4.60;4.20;;;;;;;16.47;70.34;99915.70;220030;1260;142304;-71
2023/06/14 15:19:14;;;;;;;8.90;4.30;;;;;;;16.51;70.27;99913.15;219662;1261;140241;-66
2023/06/14 15:24:23;;;;;;;9.90;4.40;;;;;;;16.67;70.85;99910.36;219622;1257;140190;-68
2023/06/14 15:29:46;;;;;;;5.50;4.90;;;;;;;16.94;71.30;99910.71;219900;1261;139526;-69
2023/06/14 15:34:55;;;;;;;7.10;4.00;;;;;;;17.01;70.99;99913.56;219874;1260;140374;-69
2023/06/14 15:40:06;;;;;;;5.80;5.20;;;;;;;16.98;71.39;99915.35;219893;1260;140059;-69
2023/06/14 15:45:16;;;;;;;5.40;4.90;;;;;;;17.08;71.44;99908.44;219669;1259;140658;-68
2023/06/14 15:50:23;;;;;;;4.90;4.50;;;;;;;17.21;71.48;99906.08;219752;1258;139805;-67
2023/06/14 15:55:38;;;;;;;4.40;4.00;;;;;;;17.23;71.26;99903.37;220065;1260;139821;-70
2023/06/14 16:01:23;;;;;;;5.00;4.10;;;;;;;17.18;71.01;99907.32;219990;1260;140833;-71
2023/06/14 16:06:51;;;;;;;5.00;4.30;;;;;;;17.14;71.26;99910.08;220036;1259;140645;-71
2023/06/14 16:12:09;;;;;;;4.80;4.40;;;;;;;17.01;71.20;99911.04;219872;1260;139335;-70
2023/06/14 16:17:29;;;;;;;4.40;3.70;;;;;;;16.91;71.21;99915.67;219969;1259;139349;-66
2023/06/14 16:22:42;;;;;;;3.70;3.40;;;;;;;16.75;71.15;99916.30;219911;1257;140211;-68
2023/06/14 16:27:51;;;;;;;5.80;3.80;;;;;;;16.55;71.27;99912.13;219916;1258;245526;-67
2023/06/14 16:32:59;;;;;;;4.10;3.80;;;;;;;16.51;72.11;99910.73;219909;1257;141536;-70
2023/06/14 16:38:14;;;;;;;5.50;4.50;;;;;;;16.44;72.00;99910.30;220068;1260;141373;-69
2023/06/14 16:43:23;;;;;;;5.20;4.70;;;;;;;16.45;72.41;99911.81;219822;1260;140695;-68
2023/06/14 16:48:44;;;;;;;6.50;5.40;;;;;;;16.47;72.72;99911.49;217257;1260;139266;-69
2023/06/14 16:54:13;;;;;;;4.50;4.20;;;;;;;16.51;72.94;99902.06;219816;1260;140266;-68
2023/06/14 16:59:37;;;;;;;6.30;5.70;;;;;;;16.59;73.09;99902.98;219881;1259;141986;-67
2023/06/14 17:04:52;;;;;;;6.00;5.10;;;;;;;16.59;72.98;99904.21;219942;1257;139658;-66
2023/06/14 17:09:56;;;;;;;7.70;4.50;;;;;;;16.48;72.94;99907.29;219703;1258;141281;-72
2023/06/14 17:15:00;;;;;;;4.90;4.40;;;;;;;16.39;73.06;99906.86;219690;1259;141801;-69
2023/06/14 17:20:12;;;;;;;5.90;5.30;;;;;;;16.22;73.19;99908.08;220118;1260;139620;-68
2023/06/14 17:25:30;;;;;;;4.60;4.10;;;;;;;16.15;73.58;99925.56;219938;1258;139936;-69
2023/06/14 17:30:55;;;;;;;5.90;5.00;;;;;;;16.08;73.72;99935.22;219831;1259;140894;-72
2023/06/14 17:36:17;;;;;;;5.90;5.40;;;;;;;16.01;73.87;99930.63;220057;1260;140177;-71
2023/06/14 17:41:24;;;;;;;5.80;5.30;;;;;;;15.97;74.02;99930.02;219995;1261;139723;-71
2023/06/14 17:46:44;;;;;;;6.80;5.30;;;;;;;15.91;74.19;99931.04;220052;1259;139865;-71
2023/06/14 17:51:52;;;;;;;7.50;6.10;;;;;;;15.81;74.22;99934.23;219903;1259;140590;-72
2023/06/14 17:57:04;;;;;;;5.30;4.90;;;;;;;15.74;74.57;99940.30;219955;1259;140530;-72
2023/06/14 18:02:11;;;;;;;7.70;5.70;;;;;;;15.68;74.63;99945.95;219489;1259;140665;-73
2023/06/14 18:07:19;;;;;;;7.90;5.20;;;;;;;15.60;74.83;99939.31;220070;1259;139283;-73
2023/06/14 18:12:28;;;;;;;8.80;6.60;;;;;;;15.54;75.21;99936.44;220005;1260;141094;-73
2023/06/14 18:17:36;;;;;;;8.30;6.00;;;;;;;15.53;75.42;99940.45;219877;1259;140267;-72
2023/06/14 18:22:42;;;;;;;7.50;5.30;;;;;;;15.48;75.50;99943.21;219874;1259;138951;-72
2023/06/14 18:27:49;;;;;;;;;;;;;;;15.47;75.63;99945.79;220085;1258;140216;-72
2023/06/14 18:33:00;;;;;;;6.30;5.80;;;;;;;15.40;75.73;99941.94;219959;1259;126090;-72
2023/06/14 18:38:07;;;;;;;15.60;6.10;;;;;;;15.37;75.79;99944.06;220165;1259;139513;-72
2023/06/14 18:43:37;;;;;;;9.40;7.00;;;;;;;15.29;75.80;99945.42;219109;1259;140978;-72
2023/06/14 18:49:00;;;;;;;9.20;6.30;;;;;;;15.17;76.02;99945.63;220021;1257;141315;-72
2023/06/14 18:54:05;;;;;;;7.10;6.50;;;;;;;15.12;76.38;99944.04;219470;1259;139991;-71
2023/06/14 18:59:21;;;;;;;6.40;5.80;;;;;;;15.07;76.31;99947.06;219184;1259;139847;-72
2023/06/14 19:04:29;;;;;;;6.00;5.50;;;;;;;15.01;76.53;99953.79;219521;1259;139858;-68
2023/06/14 19:09:35;;;;;;;7.20;6.40;;;;;;;14.96;76.67;99957.41;219838;1259;140700;-72
2023/06/14 19:14:45;;;;;;;6.90;6.20;;;;;;;14.91;76.76;99966.14;219601;1259;140606;-72
2023/06/14 19:19:54;;;;;;;;;;;;;;;14.87;77.01;99972.17;219606;1262;139527;-72
2023/06/14 19:25:08;;;;;;;6.80;6.10;;;;;;;14.79;77.07;99975.80;220322;1258;126510;-72
2023/06/14 19:30:26;;;;;;;6.20;5.50;;;;;;;14.78;77.33;99975.27;219887;1259;140065;-72
2023/06/14 19:35:37;;;;;;;6.90;6.10;;;;;;;14.80;77.45;99976.94;219898;1259;140352;-73
2023/06/14 19:40:49;;;;;;;6.50;5.90;;;;;;;14.80;77.57;99976.77;219160;1258;139006;-73
2023/06/14 19:45:57;;;;;;;9.80;6.10;;;;;;;14.78;77.40;99976.34;219985;1258;139123;-73
2023/06/14 19:51:06;;;;;;;11.60;7.70;;;;;;;14.77;77.68;99974.06;219873;1259;139995;-72
2023/06/14 19:56:14;;;;;;;12.70;8.30;;;;;;;14.75;77.77;99973.52;220041;1259;140055;-71
2023/06/14 20:01:22;;;;;;;7.70;7.00;;;;;;;14.71;77.80;99975.95;219813;1259;139793;-72
2023/06/14 20:06:31;;;;;;;7.00;6.40;;;;;;;14.67;77.70;99975.06;219948;1259;140788;-73
2023/06/14 20:11:39;;;;;;;8.10;7.00;;;;;;;14.62;77.88;99976.05;220016;1259;140919;-72
2023/06/14 20:16:45;;;;;;;9.70;7.30;;;;;;;14.59;78.06;99976.66;219857;1259;139960;-72
2023/06/14 20:21:52;;;;;;;12.80;8.30;;;;;;;14.56;78.07;99976.41;219853;1259;140349;-71
2023/06/14 20:26:57;;;;;;;8.80;7.90;;;;;;;14.54;78.30;99979.50;219933;1258;139786;-72
2023/06/14 20:32:05;;;;;;;7.30;6.70;;;;;;;14.53;78.56;99978.64;220175;1259;140010;-71
2023/06/14 20:37:11;;;;;;;7.20;6.10;;;;;;;14.51;78.46;99977.88;219821;1259;140271;-71
2023/06/14 20:42:17;;;;;;;9.60;8.50;;;;;;;14.43;78.42;99975.53;219919;1259;140747;-72
2023/06/14 20:47:35;;;;;;;8.50;7.60;;;;;;;14.41;78.59;99975.49;219274;1259;139733;-71
2023/06/14 20:52:43;;;;;;;9.10;8.10;;;;;;;14.40;78.63;99975.64;220028;1259;139348;-72
2023/06/14 20:57:55;;;;;;;10.40;9.40;;;;;;;14.36;78.92;99973.36;218652;1262;140418;-72
2023/06/14 21:03:03;;;;;;;10.70;9.10;;;;;;;14.33;78.84;99972.58;219793;1259;139948;-72
2023/06/14 21:08:12;;;;;;;8.60;7.70;;;;;;;14.32;79.21;99969.84;219415;1259;223967;-70
2023/06/14 21:13:24;;;;;;;8.80;7.80;;;;;;;14.31;79.13;99961.25;220057;1258;139661;-72
2023/06/14 21:18:37;;;;;;;13.80;8.50;;;;;;;14.28;79.18;99959.77;219412;1259;140348;-72
2023/06/14 21:23:57;;;;;;;10.10;8.80;;;;;;;14.23;79.29;99965.19;218976;1259;139929;-71
2023/06/14 21:29:06;;;;;;;9.80;8.80;;;;;;;14.20;79.52;99964.77;218245;1259;139668;-70
2023/06/14 21:34:12;;;;;;;12.40;9.20;;;;;;;14.12;79.37;99963.23;218483;1259;140086;-72
2023/06/14 21:39:25;;;;;;;10.50;9.50;;;;;;;14.07;79.55;99964.21;219976;1259;140382;-73
2023/06/14 21:44:42;;;;;;;11.80;10.60;;;;;;;14.07;79.69;99958.58;219956;1259;141635;-73
2023/06/14 21:49:51;;;;;;;15.00;8.90;;;;;;;14.07;79.62;99958.79;219782;1259;139357;-73
2023/06/14 21:54:57;;;;;;;10.10;9.10;;;;;;;14.07;79.96;99962.53;219775;1259;140182;-72
2023/06/14 22:00:12;;;;;;;8.70;7.80;;;;;;;14.06;79.74;99957.73;219933;1259;140501;-72
2023/06/14 22:05:18;;;;;;;9.10;8.20;;;;;;;14.07;79.87;99956.80;219762;1259;139006;-72
2023/06/14 22:10:23;;;;;;;10.40;9.40;;;;;;;14.06;79.80;99952.89;219784;1259;139643;-72
2023/06/14 22:15:29;;;;;;;11.40;10.40;;;;;;;14.05;79.89;99947.14;219779;1259;140598;-72
2023/06/14 22:20:35;;;;;;;11.10;9.70;;;;;;;14.03;79.87;99942.63;219971;1258;140048;-72
2023/06/14 22:25:44;;;;;;;10.80;9.80;;;;;;;14.01;79.97;99940.52;219863;1259;141434;-73
2023/06/14 22:30:57;;;;;;;14.50;9.90;;;;;;;13.98;79.84;99932.55;219129;1259;141481;-72
2023/06/14 22:36:08;;;;;;;13.00;10.80;;;;;;;13.95;79.98;99924.73;219959;1259;140553;-73
2023/06/14 22:41:16;;;;;;;11.40;9.60;;;;;;;13.92;80.11;99924.06;219768;1258;139931;-73
2023/06/14 22:46:27;;;;;;;12.30;9.30;;;;;;;13.86;79.92;99931.92;219269;1259;141152;-73
2023/06/14 22:51:35;;;;;;;9.40;8.50;;;;;;;13.72;79.51;99935.73;219894;1258;140860;-69
2023/06/14 22:56:41;;;;;;;11.50;9.70;;;;;;;13.56;79.61;99938.64;218308;1259;140537;-70
2023/06/14 23:01:49;;;;;;;11.40;10.30;;;;;;;13.50;80.08;99931.71;219886;1258;139936;-72
2023/06/14 23:06:56;;;;;;;11.20;10.20;;;;;;;13.47;80.27;99925.30;219084;1258;141340;-71
2023/06/14 23:12:02;;;;;;;9.80;8.50;;;;;;;13.46;80.48;99926.25;220015;1258;139813;-72
2023/06/14 23:17:10;;;;;;;11.40;9.70;;;;;;;13.43;80.36;99923.02;218738;1258;139809;-71
2023/06/14 23:22:16;;;;;;;10.40;8.80;;;;;;;13.43;80.86;99922.16;218320;1257;140290;-73
2023/06/14 23:27:23;;;;;;;;;;;;;;;13.40;80.71;99927.10;218971;1259;139659;-73
2023/06/14 23:32:29;;;;;;;16.80;8.20;;;;;;;13.30;80.58;99928.69;219079;1259;566221;-72
2023/06/14 23:37:35;;;;;;;10.90;10.00;;;;;;;13.20;80.71;99924.46;220036;1257;139927;-72